sensor_id;sensor_type;location;lat;lon;timestamp;pressure;altitude;pressure_sealevel;temperature;humidity
59272;BME280;45043;51.068;7.026;2023-05-03T00:02:40;101559.28;;;5.46;43.91
59272;BME280;45043;51.068;7.026;2023-05-03T00:05:43;101563.53;;;5.37;44.40
59272;BME280;45043;51.068;7.026;2023-05-03T00:08:43;101554.25;;;5.33;44.41
59272;BME280;45043;51.068;7.026;2023-05-03T00:11:44;101554.66;;;5.28;44.61
59272;BME280;45043;51.068;7.026;2023-05-03T00:14:45;101557.53;;;5.25;44.65
59272;BME280;45043;51.068;7.026;2023-05-03T00:17:45;101553.94;;;5.26;44.50
59272;BME280;45043;51.068;7.026;2023-05-03T00:20:46;101554.16;;;5.23;44.81
59272;BME280;45043;51.068;7.026;2023-05-03T00:23:47;101541.41;;;5.18;44.86
59272;BME280;45043;51.068;7.026;2023-05-03T00:26:47;101540.59;;;5.18;44.70
59272;BME280;45043;51.068;7.026;2023-05-03T00:29:49;101538.22;;;5.15;44.93
59272;BME280;45043;51.068;7.026;2023-05-03T00:32:51;101542.34;;;5.08;45.11
59272;BME280;45043;51.068;7.026;2023-05-03T00:35:51;101541.53;;;5.07;44.80
59272;BME280;45043;51.068;7.026;2023-05-03T00:38:52;101546.94;;;5.06;44.99
59272;BME280;45043;51.068;7.026;2023-05-03T00:41:56;101538.56;;;5.01;45.19
59272;BME280;45043;51.068;7.026;2023-05-03T00:44:57;101552.16;;;4.96;45.29
59272;BME280;45043;51.068;7.026;2023-05-03T00:47:58;101559.50;;;4.92;45.38
59272;BME280;45043;51.068;7.026;2023-05-03T00:50:59;101553.53;;;4.90;45.33
59272;BME280;45043;51.068;7.026;2023-05-03T00:54:00;101560.72;;;4.88;45.50
59272;BME280;45043;51.068;7.026;2023-05-03T00:57:03;101559.31;;;4.84;45.59
59272;BME280;45043;51.068;7.026;2023-05-03T01:00:05;101561.53;;;4.79;45.76
59272;BME280;45043;51.068;7.026;2023-05-03T01:03:09;101557.47;;;4.75;45.55
59272;BME280;45043;51.068;7.026;2023-05-03T01:06:21;101556.34;;;4.68;45.54
59272;BME280;45043;51.068;7.026;2023-05-03T01:10:32;101548.47;;;4.68;45.84
59272;BME280;45043;51.068;7.026;2023-05-03T01:13:06;101544.97;;;4.67;46.03
59272;BME280;45043;51.068;7.026;2023-05-03T01:16:16;101542.31;;;4.67;45.73
59272;BME280;45043;51.068;7.026;2023-05-03T01:19:36;101545.81;;;4.68;45.89
59272;BME280;45043;51.068;7.026;2023-05-03T01:26:19;101546.84;;;4.56;46.25
59272;BME280;45043;51.068;7.026;2023-05-03T01:29:21;101543.06;;;4.49;46.18
59272;BME280;45043;51.068;7.026;2023-05-03T01:32:28;101546.94;;;4.44;46.40
59272;BME280;45043;51.068;7.026;2023-05-03T01:35:43;101549.22;;;4.38;46.51
59272;BME280;45043;51.068;7.026;2023-05-03T01:38:47;101547.97;;;4.32;46.64
59272;BME280;45043;51.068;7.026;2023-05-03T01:41:49;101548.47;;;4.26;46.83
59272;BME280;45043;51.068;7.026;2023-05-03T01:44:53;101551.34;;;4.23;46.55
59272;BME280;45043;51.068;7.026;2023-05-03T01:47:55;101546.50;;;4.18;46.71
59272;BME280;45043;51.068;7.026;2023-05-03T01:50:56;101558.38;;;4.13;47.00
59272;BME280;45043;51.068;7.026;2023-05-03T01:53:58;101553.38;;;4.10;47.20
59272;BME280;45043;51.068;7.026;2023-05-03T01:56:58;101558.63;;;4.10;47.08
59272;BME280;45043;51.068;7.026;2023-05-03T01:59:59;101566.63;;;4.08;47.40
59272;BME280;45043;51.068;7.026;2023-05-03T02:02:59;101565.94;;;4.06;47.03
59272;BME280;45043;51.068;7.026;2023-05-03T02:06:00;101558.16;;;4.05;46.98
59272;BME280;45043;51.068;7.026;2023-05-03T02:09:02;101563.41;;;4.05;47.38
59272;BME280;45043;51.068;7.026;2023-05-03T02:12:03;101560.22;;;4.01;47.33
59272;BME280;45043;51.068;7.026;2023-05-03T02:15:04;101566.56;;;3.99;47.21
59272;BME280;45043;51.068;7.026;2023-05-03T02:18:05;101564.53;;;4.02;47.31
59272;BME280;45043;51.068;7.026;2023-05-03T02:21:08;101570.59;;;4.03;46.98
59272;BME280;45043;51.068;7.026;2023-05-03T02:24:09;101568.22;;;4.00;47.04
59272;BME280;45043;51.068;7.026;2023-05-03T02:27:10;101572.91;;;3.96;47.02
59272;BME280;45043;51.068;7.026;2023-05-03T02:30:11;101580.69;;;3.98;47.15
59272;BME280;45043;51.068;7.026;2023-05-03T02:33:16;101582.34;;;3.99;47.40
59272;BME280;45043;51.068;7.026;2023-05-03T02:36:17;101586.19;;;3.94;47.36
59272;BME280;45043;51.068;7.026;2023-05-03T02:39:18;101591.69;;;3.91;47.10
59272;BME280;45043;51.068;7.026;2023-05-03T02:42:19;101597.31;;;3.87;47.52
59272;BME280;45043;51.068;7.026;2023-05-03T02:45:20;101590.53;;;3.84;47.65
59272;BME280;45043;51.068;7.026;2023-05-03T02:48:21;101599.38;;;3.83;47.61
59272;BME280;45043;51.068;7.026;2023-05-03T02:51:22;101590.75;;;3.81;47.50
59272;BME280;45043;51.068;7.026;2023-05-03T02:54:23;101592.56;;;3.81;47.87
59272;BME280;45043;51.068;7.026;2023-05-03T02:57:24;101594.34;;;3.80;47.51
59272;BME280;45043;51.068;7.026;2023-05-03T03:00:25;101584.91;;;3.78;47.85
59272;BME280;45043;51.068;7.026;2023-05-03T03:03:25;101575.50;;;3.75;47.92
59272;BME280;45043;51.068;7.026;2023-05-03T03:06:26;101577.16;;;3.76;47.57
59272;BME280;45043;51.068;7.026;2023-05-03T03:09:27;101578.97;;;3.76;47.53
59272;BME280;45043;51.068;7.026;2023-05-03T03:12:28;101581.69;;;3.74;47.47
59272;BME280;45043;51.068;7.026;2023-05-03T03:15:29;101573.00;;;3.73;47.73
59272;BME280;45043;51.068;7.026;2023-05-03T03:18:30;101566.91;;;3.73;47.53
59272;BME280;45043;51.068;7.026;2023-05-03T03:21:31;101570.50;;;3.72;47.38
59272;BME280;45043;51.068;7.026;2023-05-03T03:24:32;101567.16;;;3.70;47.18
59272;BME280;45043;51.068;7.026;2023-05-03T03:27:32;101563.34;;;3.63;47.44
59272;BME280;45043;51.068;7.026;2023-05-03T03:30:34;101559.53;;;3.56;47.90
59272;BME280;45043;51.068;7.026;2023-05-03T03:33:51;101555.50;;;3.52;47.53
59272;BME280;45043;51.068;7.026;2023-05-03T03:36:54;101556.69;;;3.47;47.80
59272;BME280;45043;51.068;7.026;2023-05-03T03:39:54;101547.66;;;3.40;47.91
59272;BME280;45043;51.068;7.026;2023-05-03T03:42:56;101555.53;;;3.40;47.65
59272;BME280;45043;51.068;7.026;2023-05-03T03:45:58;101554.06;;;3.36;48.09
59272;BME280;45043;51.068;7.026;2023-05-03T03:48:58;101546.56;;;3.32;48.22
59272;BME280;45043;51.068;7.026;2023-05-03T03:52:02;101543.44;;;3.27;48.32
59272;BME280;45043;51.068;7.026;2023-05-03T03:55:04;101551.47;;;3.25;48.30
59272;BME280;45043;51.068;7.026;2023-05-03T03:58:07;101543.97;;;3.20;48.41
59272;BME280;45043;51.068;7.026;2023-05-03T04:01:08;101553.63;;;3.20;48.62
59272;BME280;45043;51.068;7.026;2023-05-03T04:04:08;101543.38;;;3.17;48.53
59272;BME280;45043;51.068;7.026;2023-05-03T04:07:09;101546.97;;;3.16;48.74
59272;BME280;45043;51.068;7.026;2023-05-03T04:10:09;101548.63;;;3.17;48.58
59272;BME280;45043;51.068;7.026;2023-05-03T04:13:12;101542.53;;;3.16;48.92
59272;BME280;45043;51.068;7.026;2023-05-03T04:16:13;101534.06;;;3.13;48.45
59272;BME280;45043;51.068;7.026;2023-05-03T04:19:15;101535.13;;;3.10;48.93
59272;BME280;45043;51.068;7.026;2023-05-03T04:22:16;101531.78;;;3.08;48.58
59272;BME280;45043;51.068;7.026;2023-05-03T04:25:16;101518.94;;;3.05;49.02
59272;BME280;45043;51.068;7.026;2023-05-03T04:28:21;101522.16;;;3.09;48.75
59272;BME280;45043;51.068;7.026;2023-05-03T04:31:24;101519.53;;;3.09;49.24
59272;BME280;45043;51.068;7.026;2023-05-03T04:34:27;101518.41;;;3.11;48.90
59272;BME280;45043;51.068;7.026;2023-05-03T04:37:30;101527.63;;;3.17;49.05
59272;BME280;45043;51.068;7.026;2023-05-03T04:40:31;101536.31;;;3.29;50.86
59272;BME280;45043;51.068;7.026;2023-05-03T04:43:40;101540.69;;;3.51;50.74
59272;BME280;45043;51.068;7.026;2023-05-03T04:46:40;101546.59;;;3.64;50.23
59272;BME280;45043;51.068;7.026;2023-05-03T04:49:41;101552.56;;;3.77;50.07
59272;BME280;45043;51.068;7.026;2023-05-03T04:52:43;101560.97;;;3.92;50.07
59272;BME280;45043;51.068;7.026;2023-05-03T04:55:44;101565.44;;;4.12;49.36
59272;BME280;45043;51.068;7.026;2023-05-03T04:58:45;101568.94;;;4.23;48.23
59272;BME280;45043;51.068;7.026;2023-05-03T05:01:48;101571.22;;;4.27;49.00
59272;BME280;45043;51.068;7.026;2023-05-03T05:04:49;101573.50;;;4.41;48.14
59272;BME280;45043;51.068;7.026;2023-05-03T05:07:50;101566.25;;;4.55;47.81
59272;BME280;45043;51.068;7.026;2023-05-03T05:10:53;101566.78;;;4.79;48.38
59272;BME280;45043;51.068;7.026;2023-05-03T05:13:58;101565.91;;;5.00;47.96
59272;BME280;45043;51.068;7.026;2023-05-03T05:16:59;101570.53;;;5.17;48.04
59272;BME280;45043;51.068;7.026;2023-05-03T05:20:00;101572.94;;;5.30;47.77
59272;BME280;45043;51.068;7.026;2023-05-03T05:23:02;101566.47;;;5.44;47.42
59272;BME280;45043;51.068;7.026;2023-05-03T05:26:03;101571.34;;;5.58;47.00
59272;BME280;45043;51.068;7.026;2023-05-03T05:29:05;101577.47;;;5.68;46.51
59272;BME280;45043;51.068;7.026;2023-05-03T05:32:06;101570.53;;;5.77;46.18
59272;BME280;45043;51.068;7.026;2023-05-03T05:35:07;101573.59;;;5.92;46.35
59272;BME280;45043;51.068;7.026;2023-05-03T05:38:08;101585.13;;;6.10;45.60
59272;BME280;45043;51.068;7.026;2023-05-03T05:41:09;101595.78;;;6.28;45.41
59272;BME280;45043;51.068;7.026;2023-05-03T05:44:11;101604.78;;;6.45;45.05
59272;BME280;45043;51.068;7.026;2023-05-03T05:47:12;101601.16;;;6.55;44.77
59272;BME280;45043;51.068;7.026;2023-05-03T05:50:14;101606.41;;;6.65;44.45
59272;BME280;45043;51.068;7.026;2023-05-03T05:53:15;101597.72;;;6.82;44.62
59272;BME280;45043;51.068;7.026;2023-05-03T05:56:26;101607.88;;;6.97;44.38
59272;BME280;45043;51.068;7.026;2023-05-03T05:59:27;101603.47;;;7.15;44.13
59272;BME280;45043;51.068;7.026;2023-05-03T06:02:28;101613.72;;;7.28;43.62
59272;BME280;45043;51.068;7.026;2023-05-03T06:05:29;101608.91;;;7.41;43.33
59272;BME280;45043;51.068;7.026;2023-05-03T06:08:29;101609.94;;;7.58;43.42
59272;BME280;45043;51.068;7.026;2023-05-03T06:11:30;101610.41;;;7.71;43.36
59272;BME280;45043;51.068;7.026;2023-05-03T06:14:31;101609.75;;;7.87;42.47
59272;BME280;45043;51.068;7.026;2023-05-03T06:17:33;101620.94;;;7.99;42.21
59272;BME280;45043;51.068;7.026;2023-05-03T06:20:34;101621.81;;;8.07;41.58
59272;BME280;45043;51.068;7.026;2023-05-03T06:23:36;101621.47;;;8.20;41.73
59272;BME280;45043;51.068;7.026;2023-05-03T06:26:39;101622.53;;;8.27;41.08
59272;BME280;45043;51.068;7.026;2023-05-03T06:29:41;101618.44;;;8.33;40.89
59272;BME280;45043;51.068;7.026;2023-05-03T06:32:46;101624.31;;;8.45;41.12
59272;BME280;45043;51.068;7.026;2023-05-03T06:35:46;101619.75;;;8.55;40.22
59272;BME280;45043;51.068;7.026;2023-05-03T06:38:48;101621.31;;;8.66;39.92
59272;BME280;45043;51.068;7.026;2023-05-03T06:41:49;101626.84;;;8.72;39.92
59272;BME280;45043;51.068;7.026;2023-05-03T06:44:51;101623.59;;;8.87;39.87
59272;BME280;45043;51.068;7.026;2023-05-03T06:47:51;101624.00;;;9.00;39.53
59272;BME280;45043;51.068;7.026;2023-05-03T06:50:53;101624.06;;;9.16;39.59
59272;BME280;45043;51.068;7.026;2023-05-03T06:53:54;101623.13;;;9.25;39.37
59272;BME280;45043;51.068;7.026;2023-05-03T06:56:59;101624.34;;;9.39;38.32
59272;BME280;45043;51.068;7.026;2023-05-03T07:00:00;101623.53;;;9.39;38.59
59272;BME280;45043;51.068;7.026;2023-05-03T07:03:01;101623.91;;;9.52;38.82
59272;BME280;45043;51.068;7.026;2023-05-03T07:06:01;101615.31;;;9.58;38.00
59272;BME280;45043;51.068;7.026;2023-05-03T07:09:02;101624.28;;;9.65;38.42
59272;BME280;45043;51.068;7.026;2023-05-03T07:12:04;101622.47;;;9.74;37.80
59272;BME280;45043;51.068;7.026;2023-05-03T07:15:05;101618.50;;;9.78;37.67
59272;BME280;45043;51.068;7.026;2023-05-03T07:18:05;101622.16;;;9.93;37.12
59272;BME280;45043;51.068;7.026;2023-05-03T07:21:06;101623.50;;;9.97;37.27
59272;BME280;45043;51.068;7.026;2023-05-03T07:24:07;101619.69;;;10.16;37.16
59272;BME280;45043;51.068;7.026;2023-05-03T07:27:07;101617.06;;;10.24;36.64
59272;BME280;45043;51.068;7.026;2023-05-03T07:30:08;101619.72;;;10.33;36.38
59272;BME280;45043;51.068;7.026;2023-05-03T07:33:09;101615.72;;;10.37;36.57
59272;BME280;45043;51.068;7.026;2023-05-03T07:36:10;101610.56;;;10.43;35.61
59272;BME280;45043;51.068;7.026;2023-05-03T07:39:11;101610.06;;;10.40;35.36
59272;BME280;45043;51.068;7.026;2023-05-03T07:42:12;101597.78;;;10.31;35.54
59272;BME280;45043;51.068;7.026;2023-05-03T07:45:12;101590.97;;;10.20;35.93
59272;BME280;45043;51.068;7.026;2023-05-03T07:48:13;101598.31;;;10.18;35.60
59272;BME280;45043;51.068;7.026;2023-05-03T07:51:14;101596.66;;;10.17;35.40
59272;BME280;45043;51.068;7.026;2023-05-03T07:54:14;101596.16;;;10.13;35.43
59272;BME280;45043;51.068;7.026;2023-05-03T07:57:15;101591.84;;;10.20;35.46
59272;BME280;45043;51.068;7.026;2023-05-03T08:00:17;101590.84;;;10.21;35.61
59272;BME280;45043;51.068;7.026;2023-05-03T08:03:18;101567.91;;;10.12;34.99
59272;BME280;45043;51.068;7.026;2023-05-03T08:06:18;101581.72;;;9.91;35.41
59272;BME280;45043;51.068;7.026;2023-05-03T08:09:19;101574.56;;;9.92;36.35
59272;BME280;45043;51.068;7.026;2023-05-03T08:12:20;101568.59;;;9.82;35.84
59272;BME280;45043;51.068;7.026;2023-05-03T08:15:20;101581.00;;;9.65;35.84
59272;BME280;45043;51.068;7.026;2023-05-03T08:18:21;101585.13;;;9.59;35.71
59272;BME280;45043;51.068;7.026;2023-05-03T08:21:21;101580.03;;;9.74;36.05
59272;BME280;45043;51.068;7.026;2023-05-03T08:24:23;101583.50;;;9.83;35.82
59272;BME280;45043;51.068;7.026;2023-05-03T08:27:24;101588.31;;;9.79;35.31
59272;BME280;45043;51.068;7.026;2023-05-03T08:30:28;101583.16;;;9.69;35.50
59272;BME280;45043;51.068;7.026;2023-05-03T08:33:29;101576.53;;;9.82;36.00
59272;BME280;45043;51.068;7.026;2023-05-03T08:36:30;101569.91;;;9.94;35.65
59272;BME280;45043;51.068;7.026;2023-05-03T08:39:31;101572.59;;;10.02;35.98
59272;BME280;45043;51.068;7.026;2023-05-03T08:42:32;101573.72;;;10.08;35.72
59272;BME280;45043;51.068;7.026;2023-05-03T08:45:33;101577.22;;;10.24;35.65
59272;BME280;45043;51.068;7.026;2023-05-03T08:48:33;101574.88;;;10.30;35.40
59272;BME280;45043;51.068;7.026;2023-05-03T08:51:35;101569.56;;;10.30;34.98
59272;BME280;45043;51.068;7.026;2023-05-03T08:54:39;101566.59;;;10.24;35.19
59272;BME280;45043;51.068;7.026;2023-05-03T08:57:40;101568.09;;;10.35;35.44
59272;BME280;45043;51.068;7.026;2023-05-03T09:00:41;101559.91;;;10.45;35.48
59272;BME280;45043;51.068;7.026;2023-05-03T09:03:49;101558.75;;;10.47;34.93
59272;BME280;45043;51.068;7.026;2023-05-03T09:07:01;101558.56;;;10.57;34.98
59272;BME280;45043;51.068;7.026;2023-05-03T09:10:26;101565.69;;;10.57;34.70
59272;BME280;45043;51.068;7.026;2023-05-03T09:13:29;101561.88;;;10.67;35.21
59272;BME280;45043;51.068;7.026;2023-05-03T09:16:33;101561.84;;;10.76;34.86
59272;BME280;45043;51.068;7.026;2023-05-03T09:19:48;101556.88;;;10.81;34.81
59272;BME280;45043;51.068;7.026;2023-05-03T09:22:50;101556.53;;;10.84;34.47
59272;BME280;45043;51.068;7.026;2023-05-03T09:25:52;101550.84;;;10.87;34.81
59272;BME280;45043;51.068;7.026;2023-05-03T09:28:52;101542.41;;;10.83;35.09
59272;BME280;45043;51.068;7.026;2023-05-03T09:32:02;101543.22;;;10.92;34.79
59272;BME280;45043;51.068;7.026;2023-05-03T09:35:08;101538.53;;;11.02;34.67
59272;BME280;45043;51.068;7.026;2023-05-03T09:38:24;101545.97;;;11.07;34.54
59272;BME280;45043;51.068;7.026;2023-05-03T09:41:30;101542.44;;;11.14;34.22
59272;BME280;45043;51.068;7.026;2023-05-03T09:44:48;101530.75;;;11.24;34.10
59272;BME280;45043;51.068;7.026;2023-05-03T09:47:52;101527.19;;;11.31;34.92
59272;BME280;45043;51.068;7.026;2023-05-03T09:50:55;101524.72;;;11.30;33.74
59272;BME280;45043;51.068;7.026;2023-05-03T09:53:55;101525.06;;;11.27;34.06
59272;BME280;45043;51.068;7.026;2023-05-03T09:56:59;101526.03;;;11.34;34.05
59272;BME280;45043;51.068;7.026;2023-05-03T10:00:01;101528.53;;;11.35;33.74
59272;BME280;45043;51.068;7.026;2023-05-03T10:03:17;101515.75;;;11.31;33.70
59272;BME280;45043;51.068;7.026;2023-05-03T10:09:31;101504.53;;;11.20;33.42
59272;BME280;45043;51.068;7.026;2023-05-03T10:17:36;101493.72;;;10.83;33.68
59272;BME280;45043;51.068;7.026;2023-05-03T10:20:49;101497.81;;;10.93;34.30
59272;BME280;45043;51.068;7.026;2023-05-03T10:27:15;101485.84;;;11.29;34.67
59272;BME280;45043;51.068;7.026;2023-05-03T10:33:31;101487.38;;;11.46;34.39
59272;BME280;45043;51.068;7.026;2023-05-03T10:36:34;101480.31;;;11.53;34.20
59272;BME280;45043;51.068;7.026;2023-05-03T10:46:32;101466.66;;;11.56;34.83
59272;BME280;45043;51.068;7.026;2023-05-03T10:49:33;101473.28;;;11.60;34.74
59272;BME280;45043;51.068;7.026;2023-05-03T10:55:36;101464.59;;;11.89;34.67
59272;BME280;45043;51.068;7.026;2023-05-03T10:58:47;101464.03;;;11.94;34.14
59272;BME280;45043;51.068;7.026;2023-05-03T11:01:50;101457.97;;;11.85;34.15
59272;BME280;45043;51.068;7.026;2023-05-03T11:04:54;101457.69;;;11.80;33.95
59272;BME280;45043;51.068;7.026;2023-05-03T11:08:11;101459.22;;;11.75;33.49
59272;BME280;45043;51.068;7.026;2023-05-03T11:11:12;101453.91;;;11.75;33.91
59272;BME280;45043;51.068;7.026;2023-05-03T11:14:13;101449.50;;;11.82;34.01
59272;BME280;45043;51.068;7.026;2023-05-03T11:17:13;101447.22;;;11.93;33.95
59272;BME280;45043;51.068;7.026;2023-05-03T11:20:13;101432.28;;;12.37;31.40
59272;BME280;45043;51.068;7.026;2023-05-03T11:23:14;101429.25;;;12.10;32.43
59272;BME280;45043;51.068;7.026;2023-05-03T11:26:14;101436.78;;;12.07;32.97
59272;BME280;45043;51.068;7.026;2023-05-03T11:29:15;101442.22;;;12.13;32.70
59272;BME280;45043;51.068;7.026;2023-05-03T11:32:17;101448.91;;;12.24;31.73
59272;BME280;45043;51.068;7.026;2023-05-03T11:35:17;101433.38;;;12.28;31.83
59272;BME280;45043;51.068;7.026;2023-05-03T11:38:24;101427.31;;;12.34;31.54
59272;BME280;45043;51.068;7.026;2023-05-03T11:41:25;101427.41;;;12.40;30.58
59272;BME280;45043;51.068;7.026;2023-05-03T11:44:26;101428.59;;;12.38;30.46
59272;BME280;45043;51.068;7.026;2023-05-03T11:47:26;101432.75;;;12.40;30.31
59272;BME280;45043;51.068;7.026;2023-05-03T11:50:43;101429.81;;;12.50;30.53
59272;BME280;45043;51.068;7.026;2023-05-03T11:53:48;101410.09;;;12.66;30.89
59272;BME280;45043;51.068;7.026;2023-05-03T11:56:50;101421.38;;;12.83;30.96
59272;BME280;45043;51.068;7.026;2023-05-03T11:59:50;101414.16;;;12.98;30.31
59272;BME280;45043;51.068;7.026;2023-05-03T12:02:51;101417.78;;;13.12;29.69
59272;BME280;45043;51.068;7.026;2023-05-03T12:05:52;101409.88;;;13.19;29.88
59272;BME280;45043;51.068;7.026;2023-05-03T12:08:52;101396.38;;;13.27;29.93
59272;BME280;45043;51.068;7.026;2023-05-03T12:11:53;101391.75;;;13.35;29.74
59272;BME280;45043;51.068;7.026;2023-05-03T12:14:58;101391.63;;;13.44;28.94
59272;BME280;45043;51.068;7.026;2023-05-03T12:18:03;101403.78;;;13.53;28.91
59272;BME280;45043;51.068;7.026;2023-05-03T12:21:03;101396.28;;;13.63;28.96
59272;BME280;45043;51.068;7.026;2023-05-03T12:24:04;101388.78;;;13.73;28.78
59272;BME280;45043;51.068;7.026;2023-05-03T12:27:05;101388.25;;;13.84;28.90
59272;BME280;45043;51.068;7.026;2023-05-03T12:30:06;101385.38;;;13.86;28.22
59272;BME280;45043;51.068;7.026;2023-05-03T12:33:09;101389.53;;;13.95;28.69
59272;BME280;45043;51.068;7.026;2023-05-03T12:36:09;101392.09;;;14.17;28.17
59272;BME280;45043;51.068;7.026;2023-05-03T12:39:10;101377.19;;;14.29;28.29
59272;BME280;45043;51.068;7.026;2023-05-03T12:42:11;101378.63;;;14.38;28.41
59272;BME280;45043;51.068;7.026;2023-05-03T12:45:11;101386.09;;;14.49;28.18
59272;BME280;45043;51.068;7.026;2023-05-03T12:48:13;101373.41;;;14.65;27.60
59272;BME280;45043;51.068;7.026;2023-05-03T12:51:13;101365.63;;;14.83;27.41
59272;BME280;45043;51.068;7.026;2023-05-03T12:54:14;101360.34;;;15.03;27.18
59272;BME280;45043;51.068;7.026;2023-05-03T12:57:15;101349.22;;;15.06;27.17
59272;BME280;45043;51.068;7.026;2023-05-03T13:00:16;101343.44;;;15.16;27.07
59272;BME280;45043;51.068;7.026;2023-05-03T13:03:20;101335.63;;;15.21;27.14
59272;BME280;45043;51.068;7.026;2023-05-03T13:06:20;101348.78;;;15.36;26.99
59272;BME280;45043;51.068;7.026;2023-05-03T13:09:21;101338.09;;;15.16;26.74
59272;BME280;45043;51.068;7.026;2023-05-03T13:12:23;101331.69;;;15.17;26.80
59272;BME280;45043;51.068;7.026;2023-05-03T13:15:24;101322.88;;;15.49;26.00
59272;BME280;45043;51.068;7.026;2023-05-03T13:18:26;101311.63;;;15.92;25.85
59272;BME280;45043;51.068;7.026;2023-05-03T13:21:27;101299.31;;;16.30;25.61
59272;BME280;45043;51.068;7.026;2023-05-03T13:24:28;101297.75;;;16.54;25.67
59272;BME280;45043;51.068;7.026;2023-05-03T13:27:29;101300.25;;;16.80;25.01
59272;BME280;45043;51.068;7.026;2023-05-03T13:30:30;101304.81;;;17.05;24.83
59272;BME280;45043;51.068;7.026;2023-05-03T13:33:30;101292.00;;;17.32;24.00
59272;BME280;45043;51.068;7.026;2023-05-03T13:36:31;101290.69;;;17.59;24.44
59272;BME280;45043;51.068;7.026;2023-05-03T13:39:32;101291.06;;;17.63;24.42
59272;BME280;45043;51.068;7.026;2023-05-03T13:42:33;101292.84;;;17.69;24.08
59272;BME280;45043;51.068;7.026;2023-05-03T13:45:34;101287.41;;;17.94;23.67
59272;BME280;45043;51.068;7.026;2023-05-03T13:48:34;101282.69;;;18.08;23.61
59272;BME280;45043;51.068;7.026;2023-05-03T13:51:35;101267.81;;;18.35;23.10
59272;BME280;45043;51.068;7.026;2023-05-03T13:54:39;101256.38;;;18.70;23.22
59272;BME280;45043;51.068;7.026;2023-05-03T13:57:39;101255.44;;;18.76;22.44
59272;BME280;45043;51.068;7.026;2023-05-03T14:00:40;101245.16;;;18.73;22.54
59272;BME280;45043;51.068;7.026;2023-05-03T14:03:40;101238.97;;;19.08;22.23
59272;BME280;45043;51.068;7.026;2023-05-03T14:06:41;101233.53;;;19.31;22.20
59272;BME280;45043;51.068;7.026;2023-05-03T14:09:41;101230.13;;;19.59;22.16
59272;BME280;45043;51.068;7.026;2023-05-03T14:12:42;101234.53;;;20.06;21.33
59272;BME280;45043;51.068;7.026;2023-05-03T14:15:44;101224.97;;;20.44;21.62
59272;BME280;45043;51.068;7.026;2023-05-03T14:18:45;101228.63;;;20.83;21.73
59272;BME280;45043;51.068;7.026;2023-05-03T14:21:49;101222.34;;;21.16;20.77
59272;BME280;45043;51.068;7.026;2023-05-03T14:24:50;101205.19;;;21.66;20.05
59272;BME280;45043;51.068;7.026;2023-05-03T14:27:51;101205.69;;;22.12;19.51
59272;BME280;45043;51.068;7.026;2023-05-03T14:30:51;101210.88;;;22.51;18.99
59272;BME280;45043;51.068;7.026;2023-05-03T14:33:52;101198.63;;;22.76;19.45
59272;BME280;45043;51.068;7.026;2023-05-03T14:36:52;101189.00;;;22.95;18.41
59272;BME280;45043;51.068;7.026;2023-05-03T14:39:53;101178.50;;;23.04;18.68
59272;BME280;45043;51.068;7.026;2023-05-03T14:42:53;101177.84;;;23.39;17.99
59272;BME280;45043;51.068;7.026;2023-05-03T14:45:53;101178.72;;;23.50;18.01
59272;BME280;45043;51.068;7.026;2023-05-03T14:48:54;101162.47;;;23.70;18.07
59272;BME280;45043;51.068;7.026;2023-05-03T14:51:55;101170.31;;;23.61;17.72
59272;BME280;45043;51.068;7.026;2023-05-03T14:54:56;101157.34;;;23.79;18.24
59272;BME280;45043;51.068;7.026;2023-05-03T14:57:57;101159.88;;;23.33;18.07
59272;BME280;45043;51.068;7.026;2023-05-03T15:00:57;101158.97;;;23.85;18.14
59272;BME280;45043;51.068;7.026;2023-05-03T15:03:57;101161.75;;;24.67;17.40
59272;BME280;45043;51.068;7.026;2023-05-03T15:06:59;101159.00;;;24.77;17.08
59272;BME280;45043;51.068;7.026;2023-05-03T15:10:01;101158.94;;;24.97;16.74
59272;BME280;45043;51.068;7.026;2023-05-03T15:13:04;101151.75;;;25.37;16.25
59272;BME280;45043;51.068;7.026;2023-05-03T15:16:05;101150.94;;;25.86;15.92
59272;BME280;45043;51.068;7.026;2023-05-03T15:19:05;101144.81;;;26.04;15.52
59272;BME280;45043;51.068;7.026;2023-05-03T15:22:07;101143.66;;;26.10;14.92
59272;BME280;45043;51.068;7.026;2023-05-03T15:25:07;101144.13;;;26.18;15.23
59272;BME280;45043;51.068;7.026;2023-05-03T15:28:08;101140.53;;;26.56;15.17
59272;BME280;45043;51.068;7.026;2023-05-03T15:31:08;101145.72;;;26.82;14.99
59272;BME280;45043;51.068;7.026;2023-05-03T15:34:09;101133.78;;;26.78;14.61
59272;BME280;45043;51.068;7.026;2023-05-03T15:37:12;101143.25;;;26.86;14.88
59272;BME280;45043;51.068;7.026;2023-05-03T15:40:23;101144.56;;;26.88;14.80
59272;BME280;45043;51.068;7.026;2023-05-03T15:43:27;101139.16;;;26.83;14.60
59272;BME280;45043;51.068;7.026;2023-05-03T15:46:27;101138.59;;;27.10;14.48
59272;BME280;45043;51.068;7.026;2023-05-03T15:49:28;101135.19;;;27.42;14.32
59272;BME280;45043;51.068;7.026;2023-05-03T15:52:28;101135.88;;;27.29;14.01
59272;BME280;45043;51.068;7.026;2023-05-03T15:55:29;101128.97;;;26.94;14.25
59272;BME280;45043;51.068;7.026;2023-05-03T15:58:29;101127.03;;;27.18;14.18
59272;BME280;45043;51.068;7.026;2023-05-03T16:01:30;101129.75;;;27.42;14.32
59272;BME280;45043;51.068;7.026;2023-05-03T16:04:31;101134.09;;;27.43;14.80
59272;BME280;45043;51.068;7.026;2023-05-03T16:07:31;101132.97;;;27.82;15.20
59272;BME280;45043;51.068;7.026;2023-05-03T16:10:32;101117.59;;;28.52;14.72
59272;BME280;45043;51.068;7.026;2023-05-03T16:13:33;101118.84;;;29.01;14.07
59272;BME280;45043;51.068;7.026;2023-05-03T16:16:35;101116.25;;;29.68;14.37
59272;BME280;45043;51.068;7.026;2023-05-03T16:19:37;101118.94;;;30.58;14.20
59272;BME280;45043;51.068;7.026;2023-05-03T16:22:38;101114.25;;;31.94;12.58
59272;BME280;45043;51.068;7.026;2023-05-03T16:25:38;101103.94;;;33.35;11.97
59272;BME280;45043;51.068;7.026;2023-05-03T16:28:40;101111.28;;;34.55;11.07